Time;durP1;ratioP1;P1;durP2;ratioP2;P2;SDS_P1;SDS_P2;PMS_P1;PMS_P2;Temp;Humidity;BMP_temperature;BMP_pressure;BME280_temperature;BME280_humidity;BME280_pressure;Samples;Min_cycle;Max_cycle;Signal;HPM_P1;HPM_P2
2022/08/23 00:02:07;;;;;;;7.70;3.00;;;;;;;20.17;100.00;100319.02;657986;1277;24432;-80
2022/08/23 00:17:25;;;;;;;10.50;3.00;;;;;;;20.14;100.00;100315.24;657039;1277;24333;-82
2022/08/23 00:32:38;;;;;;;6.60;3.30;;;;;;;20.06;100.00;100312.58;656454;1277;1446163;-82
2022/08/23 00:47:42;;;;;;;5.40;3.30;;;;;;;19.90;100.00;100305.38;655792;1277;26572;-82
2022/08/23 01:02:49;;;;;;;4.10;3.50;;;;;;;19.77;100.00;100300.60;655708;1277;23470;-82
2022/08/23 01:18:02;;;;;;;6.60;3.00;;;;;;;19.72;100.00;100298.52;655788;1280;22570;-82
2022/08/23 01:33:06;;;;;;;5.50;3.30;;;;;;;19.59;100.00;100301.29;656120;1277;25273;-83
2022/08/23 01:48:09;;;;;;;4.90;3.60;;;;;;;19.54;100.00;100312.19;655910;1277;25052;-82
2022/08/23 02:03:14;;;;;;;5.40;3.70;;;;;;;19.51;100.00;100317.92;655570;1277;23840;-82
2022/08/23 02:18:20;;;;;;;9.20;3.80;;;;;;;19.40;100.00;100320.92;655963;1277;23655;-82
2022/08/23 02:33:23;;;;;;;7.00;3.70;;;;;;;19.35;100.00;100323.17;655530;1277;22563;-82
2022/08/23 02:48:26;;;;;;;5.00;3.60;;;;;;;19.36;100.00;100338.11;655791;1277;27507;-82
2022/08/23 03:03:36;;;;;;;5.30;4.30;;;;;;;19.47;100.00;100342.09;655346;1277;30975;-82
2022/08/23 03:18:41;;;;;;;16.40;7.80;;;;;;;19.60;100.00;100345.96;655320;1278;25267;-80
2022/08/23 03:33:45;;;;;;;20.20;8.10;;;;;;;19.69;100.00;100346.63;655305;1277;25423;-81
2022/08/23 03:48:53;;;;;;;16.40;8.20;;;;;;;19.75;100.00;100351.02;655407;1277;25361;-81
2022/08/23 04:03:59;;;;;;;14.70;7.80;;;;;;;19.81;100.00;100348.73;655489;1277;25339;-81
2022/08/23 04:19:11;;;;;;;14.40;7.50;;;;;;;19.92;100.00;100348.38;655167;1279;25423;-81
2022/08/23 04:34:23;;;;;;;9.80;7.40;;;;;;;20.03;100.00;100337.39;658052;1277;139312;-81
2022/08/23 04:49:31;;;;;;;8.00;6.50;;;;;;;20.19;100.00;100347.71;659095;1277;139495;-81
2022/08/23 05:04:35;;;;;;;12.00;6.60;;;;;;;20.21;100.00;100339.41;661204;1277;139947;-81
2022/08/23 05:19:39;;;;;;;8.60;6.70;;;;;;;20.30;100.00;100323.86;667455;1277;139906;-81
2022/08/23 05:34:50;;;;;;;9.50;6.60;;;;;;;20.38;100.00;100337.60;660443;1277;140404;-81
2022/08/23 05:49:54;;;;;;;11.00;7.50;;;;;;;20.54;100.00;100373.56;657233;1277;140893;-80
2022/08/23 06:04:58;;;;;;;8.90;7.00;;;;;;;20.80;100.00;100408.33;656788;1277;141446;-81
2022/08/23 06:20:05;;;;;;;10.40;8.00;;;;;;;21.03;100.00;100406.83;657227;1278;140214;-81
2022/08/23 06:35:13;;;;;;;11.00;7.70;;;;;;;21.49;100.00;100421.05;658180;1277;139574;-81
2022/08/23 06:50:42;;;;;;;9.00;7.40;;;;;;;21.84;100.00;100413.83;657962;1277;140920;-80
2022/08/23 07:06:14;;;;;;;13.00;8.10;;;;;;;22.27;100.00;100441.17;658404;1277;141139;-81
2022/08/23 07:21:18;;;;;;;9.30;7.30;;;;;;;22.57;100.00;100441.23;656258;1277;139979;-81
2022/08/23 07:36:22;;;;;;;15.20;7.50;;;;;;;22.89;100.00;100451.60;656433;1277;139912;-82
2022/08/23 07:51:29;;;;;;;10.40;8.30;;;;;;;23.19;100.00;100448.02;660350;1277;140897;-83
2022/08/23 08:06:46;;;;;;;9.80;7.70;;;;;;;23.83;100.00;100450.50;659105;1277;139843;-82
2022/08/23 08:22:11;;;;;;;13.20;8.10;;;;;;;23.64;100.00;100450.03;659039;1278;140527;-83
2022/08/23 08:37:38;;;;;;;14.70;9.70;;;;;;;23.73;100.00;100454.11;658832;1277;140918;-82
2022/08/23 08:52:56;;;;;;;15.90;8.80;;;;;;;25.24;100.00;100449.06;660855;1277;139433;-82
2022/08/23 09:08:57;;;;;;;14.10;7.70;;;;;;;27.41;100.00;100450.65;660619;1277;139421;-83
2022/08/23 09:24:01;;;;;;;16.30;7.40;;;;;;;29.23;100.00;100440.25;662885;1277;139618;-83
2022/08/23 09:39:39;;;;;;;13.60;7.90;;;;;;;30.18;100.00;100435.50;660128;1278;139955;-83
2022/08/23 09:54:56;;;;;;;20.60;9.30;;;;;;;31.04;99.66;100435.60;659266;1277;140801;-84
2022/08/23 10:10:25;;;;;;;14.20;8.30;;;;;;;31.72;93.65;100438.95;659733;1277;140920;-83
2022/08/23 10:25:57;;;;;;;14.30;8.60;;;;;;;32.61;91.09;100431.10;659357;1279;140220;-83
2022/08/23 10:41:23;;;;;;;14.30;7.20;;;;;;;33.23;87.42;100421.55;660008;1278;141129;-83
2022/08/23 10:56:29;;;;;;;15.40;8.10;;;;;;;34.20;84.89;100410.62;659451;1277;140335;-83
2022/08/23 11:11:47;;;;;;;15.80;8.30;;;;;;;34.64;83.41;100405.06;659216;1277;139307;-83
2022/08/23 11:26:51;;;;;;;11.20;7.40;;;;;;;34.90;80.78;100392.35;661696;1277;140526;-83
2022/08/23 11:41:54;;;;;;;12.70;7.20;;;;;;;35.82;77.31;100393.05;663423;1278;139479;-83
2022/08/23 11:57:17;;;;;;;17.20;8.00;;;;;;;35.95;75.10;100384.77;660555;1277;25506;-84
2022/08/23 12:12:29;;;;;;;22.80;13.40;;;;;;;36.09;74.73;100360.75;663635;1278;22541;-83
2022/08/23 12:27:47;;;;;;;15.40;8.20;;;;;;;36.20;72.57;100361.52;660254;1278;23481;-81
2022/08/23 12:43:02;;;;;;;14.70;6.60;;;;;;;37.31;71.67;100359.14;656498;1277;1911232;-82
2022/08/23 12:58:07;;;;;;;11.60;7.70;;;;;;;37.68;69.45;100349.95;658994;1278;24352;-82
2022/08/23 13:13:14;;;;;;;16.80;7.50;;;;;;;36.06;70.20;100334.33;667494;1277;22806;-83
2022/08/23 13:28:25;;;;;;;6.40;3.80;;;;;;;32.74;76.53;100337.55;670779;1277;24303;-83
2022/08/23 13:43:50;;;;;;;10.70;3.80;;;;;;;29.05;76.66;100388.27;669057;1277;22544;-80
2022/08/23 13:58:56;;;;;;;6.60;3.50;;;;;;;26.30;85.53;100410.77;669237;1278;25465;-83
2022/08/23 14:14:01;;;;;;;10.60;5.40;;;;;;;25.44;92.63;100399.78;672777;1277;25652;-83
2022/08/23 14:29:04;;;;;;;8.60;5.20;;;;;;;25.38;98.50;100396.58;673758;1277;22742;-83
2022/08/23 14:44:08;;;;;;;10.20;6.60;;;;;;;25.38;99.62;100431.29;671158;1277;23258;-82
2022/08/23 14:59:12;;;;;;;15.10;6.70;;;;;;;25.04;100.00;100458.33;662292;1277;22709;-85
2022/08/23 15:14:16;;;;;;;9.30;5.90;;;;;;;24.16;100.00;100496.89;660034;1277;22634;-86
2022/08/23 15:29:20;;;;;;;7.30;4.90;;;;;;;23.01;100.00;100582.63;666807;1277;22495;-83
2022/08/23 15:44:24;;;;;;;10.30;5.90;;;;;;;23.26;100.00;100574.95;657831;1277;22714;-85
2022/08/23 15:59:30;;;;;;;26.50;19.00;;;;;;;23.57;100.00;100508.50;657045;1277;24359;-89
2022/08/23 16:14:35;;;;;;;14.10;9.00;;;;;;;23.56;100.00;100491.49;659111;1277;22566;-88
2022/08/23 16:29:39;;;;;;;199.90;67.20;;;;;;;23.25;100.00;100491.70;660440;1277;24276;-87
2022/08/23 16:44:44;;;;;;;17.60;9.40;;;;;;;23.09;100.00;100490.88;658785;1277;24311;-87
2022/08/23 16:59:48;;;;;;;17.70;10.20;;;;;;;23.18;100.00;100501.34;657567;1277;22566;-87
2022/08/23 17:14:55;;;;;;;10.30;5.80;;;;;;;23.15;100.00;100508.19;659419;1277;22616;-87
2022/08/23 17:29:59;;;;;;;17.80;9.00;;;;;;;23.11;100.00;100519.96;661024;1277;22556;-90
2022/08/23 17:45:06;;;;;;;13.40;8.90;;;;;;;23.03;100.00;100512.20;657998;1277;22653;-90
2022/08/23 18:00:10;;;;;;;11.00;7.50;;;;;;;22.85;100.00;100532.48;656579;1277;24295;-88
2022/08/23 18:15:14;;;;;;;10.30;7.00;;;;;;;22.62;100.00;100532.49;660426;1277;23186;-88
2022/08/23 18:30:19;;;;;;;51.00;18.70;;;;;;;22.65;100.00;100527.13;659901;1277;24358;-88
2022/08/23 18:45:24;;;;;;;26.50;12.30;;;;;;;22.62;100.00;100537.50;661430;1278;24470;-88
2022/08/23 19:00:30;;;;;;;10.40;7.40;;;;;;;22.49;100.00;100532.67;660064;1278;22551;-88
2022/08/23 19:15:35;;;;;;;10.20;6.60;;;;;;;22.48;100.00;100524.90;660004;1277;22559;-87
2022/08/23 19:30:40;;;;;;;8.90;6.70;;;;;;;22.58;100.00;100528.09;658670;1277;23590;-86
2022/08/23 19:45:44;;;;;;;9.20;6.40;;;;;;;22.60;100.00;100530.97;664625;1277;22674;-87
2022/08/23 20:00:48;;;;;;;10.60;7.00;;;;;;;22.60;100.00;100543.72;656440;1277;24224;-87
2022/08/23 20:15:52;;;;;;;12.70;8.50;;;;;;;22.71;100.00;100556.95;658012;1277;23915;-87
2022/08/23 20:31:06;;;;;;;14.10;9.20;;;;;;;22.88;100.00;100569.66;655881;1278;26521;-85
2022/08/23 20:46:10;;;;;;;13.60;8.20;;;;;;;23.00;100.00;100573.36;656326;1278;22541;-87
2022/08/23 21:01:15;;;;;;;14.90;9.80;;;;;;;23.02;100.00;100573.94;657095;1280;26532;-86
2022/08/23 21:16:19;;;;;;;21.20;12.80;;;;;;;23.01;100.00;100614.85;657260;1277;22557;-83
2022/08/23 21:31:24;;;;;;;12.70;7.30;;;;;;;22.59;100.00;100742.48;656898;1278;22733;-80
2022/08/23 21:46:28;;;;;;;4.70;2.40;;;;;;;21.98;100.00;100696.48;655774;1277;24087;-84
2022/08/23 22:01:35;;;;;;;4.50;2.00;;;;;;;21.59;100.00;100635.46;657225;1277;24249;-86
2022/08/23 22:16:48;;;;;;;4.50;3.10;;;;;;;21.69;100.00;100602.36;657869;1277;24327;-87
2022/08/23 22:31:57;;;;;;;8.50;4.70;;;;;;;21.87;100.00;100575.73;657536;1277;24378;-85
2022/08/23 22:47:00;;;;;;;11.20;6.00;;;;;;;22.21;100.00;100568.43;657197;1277;24313;-87
2022/08/23 23:02:03;;;;;;;11.80;8.00;;;;;;;22.33;100.00;100558.04;657333;1277;23124;-87
2022/08/23 23:17:07;;;;;;;18.40;12.10;;;;;;;22.37;100.00;100570.79;657268;1277;25270;-86
2022/08/23 23:32:10;;;;;;;7.50;4.80;;;;;;;22.18;100.00;100593.88;657155;1277;25333;-87
2022/08/23 23:47:13;;;;;;;7.30;4.50;;;;;;;22.17;100.00;100588.56;657096;1277;22701;-86
